sensor_id;sensor_type;location;lat;lon;timestamp;temperature;humidity
18361;SHT31;9308;48.550;9.108;2023-06-22T00:00:55;23.05;69.79
18361;SHT31;9308;48.550;9.108;2023-06-22T00:03:22;22.98;70.25
18361;SHT31;9308;48.550;9.108;2023-06-22T00:05:48;23.15;69.38
18361;SHT31;9308;48.550;9.108;2023-06-22T00:08:14;23.01;70.18
18361;SHT31;9308;48.550;9.108;2023-06-22T00:10:40;22.91;70.37
18361;SHT31;9308;48.550;9.108;2023-06-22T00:13:06;22.98;70.70
18361;SHT31;9308;48.550;9.108;2023-06-22T00:15:32;22.61;71.51
18361;SHT31;9308;48.550;9.108;2023-06-22T00:17:58;22.96;70.74
18361;SHT31;9308;48.550;9.108;2023-06-22T00:20:24;22.99;70.79
18361;SHT31;9308;48.550;9.108;2023-06-22T00:22:57;22.92;70.81
18361;SHT31;9308;48.550;9.108;2023-06-22T00:25:23;22.98;70.80
18361;SHT31;9308;48.550;9.108;2023-06-22T00:27:49;22.88;70.88
18361;SHT31;9308;48.550;9.108;2023-06-22T00:30:18;22.75;71.68
18361;SHT31;9308;48.550;9.108;2023-06-22T00:32:45;22.78;71.38
18361;SHT31;9308;48.550;9.108;2023-06-22T00:35:11;22.70;71.63
18361;SHT31;9308;48.550;9.108;2023-06-22T00:37:38;22.88;71.19
18361;SHT31;9308;48.550;9.108;2023-06-22T00:40:06;22.74;71.63
18361;SHT31;9308;48.550;9.108;2023-06-22T00:42:33;22.40;72.69
18361;SHT31;9308;48.550;9.108;2023-06-22T00:44:58;22.29;72.85
18361;SHT31;9308;48.550;9.108;2023-06-22T00:47:24;22.44;72.50
18361;SHT31;9308;48.550;9.108;2023-06-22T00:49:49;22.63;71.85
18361;SHT31;9308;48.550;9.108;2023-06-22T00:52:20;22.54;72.11
18361;SHT31;9308;48.550;9.108;2023-06-22T00:54:51;22.27;72.75
18361;SHT31;9308;48.550;9.108;2023-06-22T00:57:17;22.29;72.64
18361;SHT31;9308;48.550;9.108;2023-06-22T00:59:44;22.29;72.80
18361;SHT31;9308;48.550;9.108;2023-06-22T01:02:10;22.63;71.90
18361;SHT31;9308;48.550;9.108;2023-06-22T01:04:37;22.41;72.56
18361;SHT31;9308;48.550;9.108;2023-06-22T01:10:30;22.13;73.29
18361;SHT31;9308;48.550;9.108;2023-06-22T01:13:02;22.16;73.02
18361;SHT31;9308;48.550;9.108;2023-06-22T01:15:45;22.16;73.11
18361;SHT31;9308;48.550;9.108;2023-06-22T01:18:13;22.12;72.91
18361;SHT31;9308;48.550;9.108;2023-06-22T01:20:40;22.01;73.11
18361;SHT31;9308;48.550;9.108;2023-06-22T01:23:16;22.04;73.02
18361;SHT31;9308;48.550;9.108;2023-06-22T01:25:53;22.23;72.33
18361;SHT31;9308;48.550;9.108;2023-06-22T01:28:57;22.19;72.39
18361;SHT31;9308;48.550;9.108;2023-06-22T01:31:26;22.02;73.16
18361;SHT31;9308;48.550;9.108;2023-06-22T01:33:57;21.57;74.67
18361;SHT31;9308;48.550;9.108;2023-06-22T01:36:25;21.77;74.38
18361;SHT31;9308;48.550;9.108;2023-06-22T01:38:51;21.70;74.70
18361;SHT31;9308;48.550;9.108;2023-06-22T01:41:17;22.01;73.57
18361;SHT31;9308;48.550;9.108;2023-06-22T01:43:43;22.02;73.33
18361;SHT31;9308;48.550;9.108;2023-06-22T01:46:09;22.05;73.44
18361;SHT31;9308;48.550;9.108;2023-06-22T01:48:35;21.99;73.57
18361;SHT31;9308;48.550;9.108;2023-06-22T01:51:02;21.98;73.44
18361;SHT31;9308;48.550;9.108;2023-06-22T01:53:28;22.02;73.50
18361;SHT31;9308;48.550;9.108;2023-06-22T01:55:53;21.61;74.72
18361;SHT31;9308;48.550;9.108;2023-06-22T01:58:20;21.94;73.91
18361;SHT31;9308;48.550;9.108;2023-06-22T02:00:59;21.71;74.69
18361;SHT31;9308;48.550;9.108;2023-06-22T02:03:35;21.81;74.31
18361;SHT31;9308;48.550;9.108;2023-06-22T02:06:14;21.92;73.95
18361;SHT31;9308;48.550;9.108;2023-06-22T02:08:46;21.94;73.96
18361;SHT31;9308;48.550;9.108;2023-06-22T02:11:15;21.89;73.78
18361;SHT31;9308;48.550;9.108;2023-06-22T02:13:42;21.75;74.38
18361;SHT31;9308;48.550;9.108;2023-06-22T02:16:12;21.89;73.73
18361;SHT31;9308;48.550;9.108;2023-06-22T02:18:38;22.01;73.51
18361;SHT31;9308;48.550;9.108;2023-06-22T02:21:06;21.97;73.38
18361;SHT31;9308;48.550;9.108;2023-06-22T02:23:32;22.01;73.30
18361;SHT31;9308;48.550;9.108;2023-06-22T02:26:02;22.01;72.99
18361;SHT31;9308;48.550;9.108;2023-06-22T02:28:27;21.88;73.58
18361;SHT31;9308;48.550;9.108;2023-06-22T02:30:53;21.87;73.67
18361;SHT31;9308;48.550;9.108;2023-06-22T02:33:18;21.57;74.47
18361;SHT31;9308;48.550;9.108;2023-06-22T02:35:44;21.34;75.32
18361;SHT31;9308;48.550;9.108;2023-06-22T02:38:13;21.65;74.84
18361;SHT31;9308;48.550;9.108;2023-06-22T02:40:39;21.74;74.05
18361;SHT31;9308;48.550;9.108;2023-06-22T02:43:05;21.87;73.79
18361;SHT31;9308;48.550;9.108;2023-06-22T02:45:30;21.77;73.94
18361;SHT31;9308;48.550;9.108;2023-06-22T02:47:56;21.55;74.92
18361;SHT31;9308;48.550;9.108;2023-06-22T02:50:22;21.53;74.77
18361;SHT31;9308;48.550;9.108;2023-06-22T02:52:47;21.46;74.85
18361;SHT31;9308;48.550;9.108;2023-06-22T02:55:13;21.51;74.84
18361;SHT31;9308;48.550;9.108;2023-06-22T02:57:38;21.62;74.32
18361;SHT31;9308;48.550;9.108;2023-06-22T03:00:09;21.49;74.66
18361;SHT31;9308;48.550;9.108;2023-06-22T03:02:45;21.61;74.47
18361;SHT31;9308;48.550;9.108;2023-06-22T03:05:11;21.68;74.28
18361;SHT31;9308;48.550;9.108;2023-06-22T03:07:42;21.64;74.51
18361;SHT31;9308;48.550;9.108;2023-06-22T03:10:11;21.47;75.04
18361;SHT31;9308;48.550;9.108;2023-06-22T03:12:38;21.85;73.68
18361;SHT31;9308;48.550;9.108;2023-06-22T03:15:08;21.58;74.44
18361;SHT31;9308;48.550;9.108;2023-06-22T03:17:35;21.71;74.24
18361;SHT31;9308;48.550;9.108;2023-06-22T03:20:02;21.70;74.04
18361;SHT31;9308;48.550;9.108;2023-06-22T03:22:43;21.65;74.36
18361;SHT31;9308;48.550;9.108;2023-06-22T03:25:09;21.79;73.82
18361;SHT31;9308;48.550;9.108;2023-06-22T03:27:39;21.77;73.62
18361;SHT31;9308;48.550;9.108;2023-06-22T03:30:06;21.61;74.16
18361;SHT31;9308;48.550;9.108;2023-06-22T03:32:32;21.57;74.37
18361;SHT31;9308;48.550;9.108;2023-06-22T03:34:57;21.41;74.61
18361;SHT31;9308;48.550;9.108;2023-06-22T03:37:25;21.39;75.10
18361;SHT31;9308;48.550;9.108;2023-06-22T03:39:51;21.57;74.79
18361;SHT31;9308;48.550;9.108;2023-06-22T03:42:17;21.46;74.95
18361;SHT31;9308;48.550;9.108;2023-06-22T03:44:42;21.70;73.93
18361;SHT31;9308;48.550;9.108;2023-06-22T03:47:08;21.30;75.46
18361;SHT31;9308;48.550;9.108;2023-06-22T03:49:34;21.60;74.54
18361;SHT31;9308;48.550;9.108;2023-06-22T03:52:00;21.71;74.24
18361;SHT31;9308;48.550;9.108;2023-06-22T03:54:28;21.74;73.93
18361;SHT31;9308;48.550;9.108;2023-06-22T03:56:54;21.75;74.03
18361;SHT31;9308;48.550;9.108;2023-06-22T03:59:19;21.77;73.73
18361;SHT31;9308;48.550;9.108;2023-06-22T04:01:45;21.74;74.25
18361;SHT31;9308;48.550;9.108;2023-06-22T04:04:11;21.77;74.10
18361;SHT31;9308;48.550;9.108;2023-06-22T04:06:37;21.46;74.89
18361;SHT31;9308;48.550;9.108;2023-06-22T04:09:02;21.46;75.02
18361;SHT31;9308;48.550;9.108;2023-06-22T04:11:28;21.65;74.46
18361;SHT31;9308;48.550;9.108;2023-06-22T04:13:53;21.75;74.23
18361;SHT31;9308;48.550;9.108;2023-06-22T04:16:19;21.77;73.87
18361;SHT31;9308;48.550;9.108;2023-06-22T04:18:44;21.79;73.97
18361;SHT31;9308;48.550;9.108;2023-06-22T04:21:10;21.89;73.50
18361;SHT31;9308;48.550;9.108;2023-06-22T04:23:35;21.78;73.87
18361;SHT31;9308;48.550;9.108;2023-06-22T04:26:01;21.67;74.47
18361;SHT31;9308;48.550;9.108;2023-06-22T04:28:26;21.87;73.72
18361;SHT31;9308;48.550;9.108;2023-06-22T04:30:51;21.82;74.14
18361;SHT31;9308;48.550;9.108;2023-06-22T04:33:17;21.67;74.41
18361;SHT31;9308;48.550;9.108;2023-06-22T04:35:45;21.70;74.52
18361;SHT31;9308;48.550;9.108;2023-06-22T04:38:12;21.78;74.18
18361;SHT31;9308;48.550;9.108;2023-06-22T04:40:41;21.87;74.01
18361;SHT31;9308;48.550;9.108;2023-06-22T04:43:06;21.83;73.74
18361;SHT31;9308;48.550;9.108;2023-06-22T04:45:33;21.95;73.60
18361;SHT31;9308;48.550;9.108;2023-06-22T04:47:58;21.98;73.55
18361;SHT31;9308;48.550;9.108;2023-06-22T04:50:24;22.23;73.05
18361;SHT31;9308;48.550;9.108;2023-06-22T04:52:50;22.36;72.52
18361;SHT31;9308;48.550;9.108;2023-06-22T04:55:16;22.06;73.54
18361;SHT31;9308;48.550;9.108;2023-06-22T04:57:45;22.02;73.38
18361;SHT31;9308;48.550;9.108;2023-06-22T05:00:23;22.25;73.32
18361;SHT31;9308;48.550;9.108;2023-06-22T05:02:49;21.92;73.50
18361;SHT31;9308;48.550;9.108;2023-06-22T05:05:15;22.04;73.19
18361;SHT31;9308;48.550;9.108;2023-06-22T05:07:45;22.01;73.23
18361;SHT31;9308;48.550;9.108;2023-06-22T05:10:13;22.47;72.04
18361;SHT31;9308;48.550;9.108;2023-06-22T05:12:40;22.47;72.02
18361;SHT31;9308;48.550;9.108;2023-06-22T05:15:07;22.80;71.18
18361;SHT31;9308;48.550;9.108;2023-06-22T05:17:33;22.70;70.79
18361;SHT31;9308;48.550;9.108;2023-06-22T05:19:59;22.61;70.57
18361;SHT31;9308;48.550;9.108;2023-06-22T05:22:24;22.50;71.10
18361;SHT31;9308;48.550;9.108;2023-06-22T05:24:49;22.82;70.66
18361;SHT31;9308;48.550;9.108;2023-06-22T05:27:15;22.98;70.48
18361;SHT31;9308;48.550;9.108;2023-06-22T05:29:41;23.03;70.25
18361;SHT31;9308;48.550;9.108;2023-06-22T05:32:08;22.56;70.96
18361;SHT31;9308;48.550;9.108;2023-06-22T05:34:33;22.92;70.27
18361;SHT31;9308;48.550;9.108;2023-06-22T05:36:59;23.12;69.84
18361;SHT31;9308;48.550;9.108;2023-06-22T05:39:24;23.43;69.93
18361;SHT31;9308;48.550;9.108;2023-06-22T05:41:50;23.16;69.28
18361;SHT31;9308;48.550;9.108;2023-06-22T05:44:16;23.05;69.10
18361;SHT31;9308;48.550;9.108;2023-06-22T05:46:43;23.25;69.67
18361;SHT31;9308;48.550;9.108;2023-06-22T05:49:13;23.37;69.82
18361;SHT31;9308;48.550;9.108;2023-06-22T05:51:39;23.33;69.13
18361;SHT31;9308;48.550;9.108;2023-06-22T05:54:05;23.49;68.88
18361;SHT31;9308;48.550;9.108;2023-06-22T05:56:30;23.46;68.84
18361;SHT31;9308;48.550;9.108;2023-06-22T05:58:56;23.40;68.41
18361;SHT31;9308;48.550;9.108;2023-06-22T06:01:22;23.87;68.34
18361;SHT31;9308;48.550;9.108;2023-06-22T06:03:47;23.98;68.06
18361;SHT31;9308;48.550;9.108;2023-06-22T06:06:15;24.18;67.75
18361;SHT31;9308;48.550;9.108;2023-06-22T06:08:40;24.05;68.68
18361;SHT31;9308;48.550;9.108;2023-06-22T06:11:06;23.85;67.86
18361;SHT31;9308;48.550;9.108;2023-06-22T06:13:31;23.97;67.84
18361;SHT31;9308;48.550;9.108;2023-06-22T06:15:57;23.85;68.13
18361;SHT31;9308;48.550;9.108;2023-06-22T06:18:23;24.01;67.70
18361;SHT31;9308;48.550;9.108;2023-06-22T06:20:49;24.12;67.73
18361;SHT31;9308;48.550;9.108;2023-06-22T06:23:14;24.26;67.48
18361;SHT31;9308;48.550;9.108;2023-06-22T06:25:40;24.29;65.99
18361;SHT31;9308;48.550;9.108;2023-06-22T06:28:05;24.38;66.63
18361;SHT31;9308;48.550;9.108;2023-06-22T06:30:31;24.25;66.57
18361;SHT31;9308;48.550;9.108;2023-06-22T06:32:57;24.36;67.04
18361;SHT31;9308;48.550;9.108;2023-06-22T06:35:22;24.57;65.64
18361;SHT31;9308;48.550;9.108;2023-06-22T06:37:50;24.73;65.98
18361;SHT31;9308;48.550;9.108;2023-06-22T06:40:17;24.73;66.14
18361;SHT31;9308;48.550;9.108;2023-06-22T06:42:44;24.98;64.72
18361;SHT31;9308;48.550;9.108;2023-06-22T06:45:23;25.00;64.95
18361;SHT31;9308;48.550;9.108;2023-06-22T06:47:50;25.12;66.02
18361;SHT31;9308;48.550;9.108;2023-06-22T06:50:16;25.26;65.35
18361;SHT31;9308;48.550;9.108;2023-06-22T06:52:41;25.25;64.90
18361;SHT31;9308;48.550;9.108;2023-06-22T06:55:08;25.49;64.03
18361;SHT31;9308;48.550;9.108;2023-06-22T06:57:37;25.52;63.94
18361;SHT31;9308;48.550;9.108;2023-06-22T07:00:07;25.81;63.55
18361;SHT31;9308;48.550;9.108;2023-06-22T07:02:38;25.70;64.00
18361;SHT31;9308;48.550;9.108;2023-06-22T07:05:04;25.73;63.77
18361;SHT31;9308;48.550;9.108;2023-06-22T07:07:30;25.84;63.60
18361;SHT31;9308;48.550;9.108;2023-06-22T07:09:55;26.00;63.11
18361;SHT31;9308;48.550;9.108;2023-06-22T07:12:21;26.21;62.17
18361;SHT31;9308;48.550;9.108;2023-06-22T07:14:47;26.20;62.23
18361;SHT31;9308;48.550;9.108;2023-06-22T07:17:12;26.41;61.50
18361;SHT31;9308;48.550;9.108;2023-06-22T07:19:37;26.41;61.03
18361;SHT31;9308;48.550;9.108;2023-06-22T07:22:04;26.41;61.86
18361;SHT31;9308;48.550;9.108;2023-06-22T07:24:29;26.35;62.39
18361;SHT31;9308;48.550;9.108;2023-06-22T07:26:55;26.65;61.45
18361;SHT31;9308;48.550;9.108;2023-06-22T07:29:22;26.65;62.36
18361;SHT31;9308;48.550;9.108;2023-06-22T07:31:49;26.63;61.53
18361;SHT31;9308;48.550;9.108;2023-06-22T07:34:16;26.97;61.00
18361;SHT31;9308;48.550;9.108;2023-06-22T07:36:43;27.04;60.48
18361;SHT31;9308;48.550;9.108;2023-06-22T07:39:08;27.04;60.35
18361;SHT31;9308;48.550;9.108;2023-06-22T07:41:34;27.18;61.08
18361;SHT31;9308;48.550;9.108;2023-06-22T07:43:59;27.15;60.61
18361;SHT31;9308;48.550;9.108;2023-06-22T07:46:25;27.27;61.00
18361;SHT31;9308;48.550;9.108;2023-06-22T07:48:50;27.61;60.16
18361;SHT31;9308;48.550;9.108;2023-06-22T07:51:16;27.87;60.39
18361;SHT31;9308;48.550;9.108;2023-06-22T07:53:42;27.56;59.58
18361;SHT31;9308;48.550;9.108;2023-06-22T07:56:11;28.02;58.79
18361;SHT31;9308;48.550;9.108;2023-06-22T07:58:36;27.93;57.82
18361;SHT31;9308;48.550;9.108;2023-06-22T08:01:02;27.92;58.13
18361;SHT31;9308;48.550;9.108;2023-06-22T08:03:28;27.59;58.48
18361;SHT31;9308;48.550;9.108;2023-06-22T08:05:53;27.82;58.93
18361;SHT31;9308;48.550;9.108;2023-06-22T08:08:19;28.17;57.01
18361;SHT31;9308;48.550;9.108;2023-06-22T08:10:44;28.37;56.17
18361;SHT31;9308;48.550;9.108;2023-06-22T08:13:10;28.03;56.14
18361;SHT31;9308;48.550;9.108;2023-06-22T08:15:35;28.62;57.04
18361;SHT31;9308;48.550;9.108;2023-06-22T08:18:01;28.62;56.08
18361;SHT31;9308;48.550;9.108;2023-06-22T08:20:26;28.68;57.31
18361;SHT31;9308;48.550;9.108;2023-06-22T08:22:53;28.41;57.20
18361;SHT31;9308;48.550;9.108;2023-06-22T08:25:19;28.25;57.87
18361;SHT31;9308;48.550;9.108;2023-06-22T08:27:46;28.48;57.05
18361;SHT31;9308;48.550;9.108;2023-06-22T08:30:13;28.80;57.16
18361;SHT31;9308;48.550;9.108;2023-06-22T08:32:38;28.88;56.65
18361;SHT31;9308;48.550;9.108;2023-06-22T08:35:04;29.26;56.54
18361;SHT31;9308;48.550;9.108;2023-06-22T08:37:31;29.10;53.89
18361;SHT31;9308;48.550;9.108;2023-06-22T08:40:01;29.58;54.28
18361;SHT31;9308;48.550;9.108;2023-06-22T08:42:30;29.24;55.78
18361;SHT31;9308;48.550;9.108;2023-06-22T08:44:56;28.92;54.88
18361;SHT31;9308;48.550;9.108;2023-06-22T08:47:22;29.02;55.42
18361;SHT31;9308;48.550;9.108;2023-06-22T08:49:48;29.29;56.67
18361;SHT31;9308;48.550;9.108;2023-06-22T08:52:14;29.30;57.30
18361;SHT31;9308;48.550;9.108;2023-06-22T08:54:39;29.06;55.55
18361;SHT31;9308;48.550;9.108;2023-06-22T08:57:05;29.14;54.73
18361;SHT31;9308;48.550;9.108;2023-06-22T08:59:30;29.31;55.65
18361;SHT31;9308;48.550;9.108;2023-06-22T09:01:56;29.78;55.14
18361;SHT31;9308;48.550;9.108;2023-06-22T09:04:21;30.05;53.90
18361;SHT31;9308;48.550;9.108;2023-06-22T09:06:48;29.99;53.75
18361;SHT31;9308;48.550;9.108;2023-06-22T09:09:13;29.92;54.57
18361;SHT31;9308;48.550;9.108;2023-06-22T09:11:40;29.84;53.25
18361;SHT31;9308;48.550;9.108;2023-06-22T09:14:05;30.20;54.06
18361;SHT31;9308;48.550;9.108;2023-06-22T09:16:32;30.47;54.41
18361;SHT31;9308;48.550;9.108;2023-06-22T09:18:57;30.57;53.57
18361;SHT31;9308;48.550;9.108;2023-06-22T09:21:23;30.81;53.64
18361;SHT31;9308;48.550;9.108;2023-06-22T09:23:49;30.44;53.17
18361;SHT31;9308;48.550;9.108;2023-06-22T09:26:20;30.28;53.44
18361;SHT31;9308;48.550;9.108;2023-06-22T09:28:45;29.75;53.02
18361;SHT31;9308;48.550;9.108;2023-06-22T09:31:11;30.48;53.93
18361;SHT31;9308;48.550;9.108;2023-06-22T09:33:37;30.74;52.58
18361;SHT31;9308;48.550;9.108;2023-06-22T09:36:06;31.22;52.35
18361;SHT31;9308;48.550;9.108;2023-06-22T09:38:37;31.16;51.08
18361;SHT31;9308;48.550;9.108;2023-06-22T09:41:03;31.16;52.29
18361;SHT31;9308;48.550;9.108;2023-06-22T09:43:30;31.57;51.58
18361;SHT31;9308;48.550;9.108;2023-06-22T09:45:56;31.89;51.11
18361;SHT31;9308;48.550;9.108;2023-06-22T09:48:22;31.75;49.98
18361;SHT31;9308;48.550;9.108;2023-06-22T09:50:47;31.53;50.19
18361;SHT31;9308;48.550;9.108;2023-06-22T09:53:13;31.43;50.56
18361;SHT31;9308;48.550;9.108;2023-06-22T09:55:38;31.56;50.62
18361;SHT31;9308;48.550;9.108;2023-06-22T09:58:04;31.46;52.62
18361;SHT31;9308;48.550;9.108;2023-06-22T10:00:29;31.09;52.61
18361;SHT31;9308;48.550;9.108;2023-06-22T10:02:55;31.43;52.60
18361;SHT31;9308;48.550;9.108;2023-06-22T10:05:21;31.15;52.41
18361;SHT31;9308;48.550;9.108;2023-06-22T10:07:47;31.26;50.96
18361;SHT31;9308;48.550;9.108;2023-06-22T10:10:13;31.02;53.29
18361;SHT31;9308;48.550;9.108;2023-06-22T10:12:43;31.43;53.48
18361;SHT31;9308;48.550;9.108;2023-06-22T10:15:09;31.64;54.01
18361;SHT31;9308;48.550;9.108;2023-06-22T10:17:35;31.57;51.43
18361;SHT31;9308;48.550;9.108;2023-06-22T10:20:00;31.82;52.18
18361;SHT31;9308;48.550;9.108;2023-06-22T10:22:31;31.19;51.44
18361;SHT31;9308;48.550;9.108;2023-06-22T10:24:56;31.80;52.02
18361;SHT31;9308;48.550;9.108;2023-06-22T10:27:22;31.30;51.93
18361;SHT31;9308;48.550;9.108;2023-06-22T10:29:47;31.75;52.13
18361;SHT31;9308;48.550;9.108;2023-06-22T10:32:12;32.02;49.99
18361;SHT31;9308;48.550;9.108;2023-06-22T10:34:38;31.98;50.24
18361;SHT31;9308;48.550;9.108;2023-06-22T10:37:03;31.66;50.57
18361;SHT31;9308;48.550;9.108;2023-06-22T10:39:29;31.53;50.62
18361;SHT31;9308;48.550;9.108;2023-06-22T10:41:54;31.78;49.08
18361;SHT31;9308;48.550;9.108;2023-06-22T10:44:21;32.06;50.23
18361;SHT31;9308;48.550;9.108;2023-06-22T10:46:46;32.22;51.77
18361;SHT31;9308;48.550;9.108;2023-06-22T10:49:12;32.12;52.58
18361;SHT31;9308;48.550;9.108;2023-06-22T10:51:37;31.91;48.86
18361;SHT31;9308;48.550;9.108;2023-06-22T10:54:03;32.08;52.61
18361;SHT31;9308;48.550;9.108;2023-06-22T10:56:29;31.88;51.00
18361;SHT31;9308;48.550;9.108;2023-06-22T10:58:55;31.33;50.86
18361;SHT31;9308;48.550;9.108;2023-06-22T11:01:20;31.75;52.40
18361;SHT31;9308;48.550;9.108;2023-06-22T11:03:46;31.43;52.53
18361;SHT31;9308;48.550;9.108;2023-06-22T11:06:11;31.96;53.88
18361;SHT31;9308;48.550;9.108;2023-06-22T11:08:37;32.71;50.46
18361;SHT31;9308;48.550;9.108;2023-06-22T11:11:02;32.74;48.49
18361;SHT31;9308;48.550;9.108;2023-06-22T11:13:27;32.67;47.56
18361;SHT31;9308;48.550;9.108;2023-06-22T11:15:53;32.63;49.46
18361;SHT31;9308;48.550;9.108;2023-06-22T11:18:18;33.03;51.38
18361;SHT31;9308;48.550;9.108;2023-06-22T11:20:44;33.17;50.26
18361;SHT31;9308;48.550;9.108;2023-06-22T11:23:09;33.56;48.32
18361;SHT31;9308;48.550;9.108;2023-06-22T11:25:35;34.06;48.21
18361;SHT31;9308;48.550;9.108;2023-06-22T11:28:02;33.92;48.64
18361;SHT31;9308;48.550;9.108;2023-06-22T11:30:28;33.87;49.53
18361;SHT31;9308;48.550;9.108;2023-06-22T11:32:53;33.51;48.69
18361;SHT31;9308;48.550;9.108;2023-06-22T11:35:19;32.98;51.06
18361;SHT31;9308;48.550;9.108;2023-06-22T11:37:44;32.92;50.62
18361;SHT31;9308;48.550;9.108;2023-06-22T11:40:10;32.60;47.76
18361;SHT31;9308;48.550;9.108;2023-06-22T11:42:36;32.50;49.10
18361;SHT31;9308;48.550;9.108;2023-06-22T11:45:02;32.64;49.18
18361;SHT31;9308;48.550;9.108;2023-06-22T11:47:29;33.42;51.71
18361;SHT31;9308;48.550;9.108;2023-06-22T11:49:55;32.94;49.09
18361;SHT31;9308;48.550;9.108;2023-06-22T11:52:21;33.39;48.97
18361;SHT31;9308;48.550;9.108;2023-06-22T11:54:46;32.60;50.28
18361;SHT31;9308;48.550;9.108;2023-06-22T11:57:12;32.91;51.97
18361;SHT31;9308;48.550;9.108;2023-06-22T11:59:37;32.94;50.95
18361;SHT31;9308;48.550;9.108;2023-06-22T12:02:03;33.12;49.73
18361;SHT31;9308;48.550;9.108;2023-06-22T12:04:30;32.70;49.17
18361;SHT31;9308;48.550;9.108;2023-06-22T12:06:56;32.59;49.03
18361;SHT31;9308;48.550;9.108;2023-06-22T12:09:21;32.63;49.19
18361;SHT31;9308;48.550;9.108;2023-06-22T12:11:46;32.33;50.03
18361;SHT31;9308;48.550;9.108;2023-06-22T12:14:12;32.02;51.21
18361;SHT31;9308;48.550;9.108;2023-06-22T12:16:37;32.01;50.68
18361;SHT31;9308;48.550;9.108;2023-06-22T12:19:03;32.06;51.49
18361;SHT31;9308;48.550;9.108;2023-06-22T12:21:28;31.77;51.64
18361;SHT31;9308;48.550;9.108;2023-06-22T12:23:54;31.46;52.69
18361;SHT31;9308;48.550;9.108;2023-06-22T12:26:19;31.29;53.41
18361;SHT31;9308;48.550;9.108;2023-06-22T12:28:45;31.09;53.73
18361;SHT31;9308;48.550;9.108;2023-06-22T12:31:10;31.18;54.22
18361;SHT31;9308;48.550;9.108;2023-06-22T12:33:36;31.19;54.49
18361;SHT31;9308;48.550;9.108;2023-06-22T12:36:01;31.47;54.74
18361;SHT31;9308;48.550;9.108;2023-06-22T12:38:26;31.64;54.11
18361;SHT31;9308;48.550;9.108;2023-06-22T12:40:52;31.46;52.65
18361;SHT31;9308;48.550;9.108;2023-06-22T12:43:18;31.71;52.50
18361;SHT31;9308;48.550;9.108;2023-06-22T12:45:43;31.94;52.09
18361;SHT31;9308;48.550;9.108;2023-06-22T12:48:08;31.73;51.56
18361;SHT31;9308;48.550;9.108;2023-06-22T12:50:34;31.44;52.33
18361;SHT31;9308;48.550;9.108;2023-06-22T12:52:59;31.25;53.72
18361;SHT31;9308;48.550;9.108;2023-06-22T12:55:27;31.41;53.69
18361;SHT31;9308;48.550;9.108;2023-06-22T12:57:52;31.57;53.12
18361;SHT31;9308;48.550;9.108;2023-06-22T13:00:18;31.53;52.71
18361;SHT31;9308;48.550;9.108;2023-06-22T13:02:43;31.74;53.25
18361;SHT31;9308;48.550;9.108;2023-06-22T13:05:09;32.25;55.33
18361;SHT31;9308;48.550;9.108;2023-06-22T13:07:34;32.13;52.02
18361;SHT31;9308;48.550;9.108;2023-06-22T13:09:59;32.83;52.51
18361;SHT31;9308;48.550;9.108;2023-06-22T13:12:25;33.28;50.59
18361;SHT31;9308;48.550;9.108;2023-06-22T13:14:50;33.42;51.28
18361;SHT31;9308;48.550;9.108;2023-06-22T13:17:16;33.11;50.13
18361;SHT31;9308;48.550;9.108;2023-06-22T13:19:41;32.73;49.15
18361;SHT31;9308;48.550;9.108;2023-06-22T13:24:55;33.07;50.31
18361;SHT31;9308;48.550;9.108;2023-06-22T13:27:20;33.18;49.41
18361;SHT31;9308;48.550;9.108;2023-06-22T13:29:46;33.51;47.93
18361;SHT31;9308;48.550;9.108;2023-06-22T13:32:11;33.49;47.70
18361;SHT31;9308;48.550;9.108;2023-06-22T13:34:36;33.65;47.61
18361;SHT31;9308;48.550;9.108;2023-06-22T13:37:02;33.51;49.79
18361;SHT31;9308;48.550;9.108;2023-06-22T13:39:27;33.52;48.16
18361;SHT31;9308;48.550;9.108;2023-06-22T13:41:53;33.46;49.46
18361;SHT31;9308;48.550;9.108;2023-06-22T13:44:18;33.29;48.90
18361;SHT31;9308;48.550;9.108;2023-06-22T13:46:44;33.52;49.76
18361;SHT31;9308;48.550;9.108;2023-06-22T13:49:09;33.53;49.14
18361;SHT31;9308;48.550;9.108;2023-06-22T13:51:36;33.38;47.43
18361;SHT31;9308;48.550;9.108;2023-06-22T13:54:01;33.22;47.25
18361;SHT31;9308;48.550;9.108;2023-06-22T13:56:27;33.11;48.19
18361;SHT31;9308;48.550;9.108;2023-06-22T13:58:52;32.97;49.12
18361;SHT31;9308;48.550;9.108;2023-06-22T14:01:17;32.87;52.75
18361;SHT31;9308;48.550;9.108;2023-06-22T14:03:43;32.78;53.83
18361;SHT31;9308;48.550;9.108;2023-06-22T14:06:10;32.56;50.86
18361;SHT31;9308;48.550;9.108;2023-06-22T14:08:37;32.25;50.39
18361;SHT31;9308;48.550;9.108;2023-06-22T14:11:02;32.66;49.92
18361;SHT31;9308;48.550;9.108;2023-06-22T14:13:27;32.63;49.23
18361;SHT31;9308;48.550;9.108;2023-06-22T14:15:53;32.74;49.76
18361;SHT31;9308;48.550;9.108;2023-06-22T14:18:19;33.08;48.60
18361;SHT31;9308;48.550;9.108;2023-06-22T14:20:45;33.52;48.81
18361;SHT31;9308;48.550;9.108;2023-06-22T14:23:11;33.80;48.16
18361;SHT31;9308;48.550;9.108;2023-06-22T14:25:36;34.08;47.75
18361;SHT31;9308;48.550;9.108;2023-06-22T14:28:02;34.34;47.60
18361;SHT31;9308;48.550;9.108;2023-06-22T14:30:27;34.31;46.45
18361;SHT31;9308;48.550;9.108;2023-06-22T14:32:53;34.62;48.38
18361;SHT31;9308;48.550;9.108;2023-06-22T14:35:18;34.51;47.78
18361;SHT31;9308;48.550;9.108;2023-06-22T14:37:44;34.63;47.89
18361;SHT31;9308;48.550;9.108;2023-06-22T14:40:10;34.86;46.63
18361;SHT31;9308;48.550;9.108;2023-06-22T14:42:36;34.99;46.10
18361;SHT31;9308;48.550;9.108;2023-06-22T14:45:01;34.55;46.89
18361;SHT31;9308;48.550;9.108;2023-06-22T14:47:27;34.21;44.87
18361;SHT31;9308;48.550;9.108;2023-06-22T14:49:52;33.87;46.88
18361;SHT31;9308;48.550;9.108;2023-06-22T14:52:18;34.17;48.90
18361;SHT31;9308;48.550;9.108;2023-06-22T14:54:43;34.13;46.82
18361;SHT31;9308;48.550;9.108;2023-06-22T14:57:08;33.96;46.96
18361;SHT31;9308;48.550;9.108;2023-06-22T14:59:34;33.55;42.62
18361;SHT31;9308;48.550;9.108;2023-06-22T15:01:59;33.07;42.42
18361;SHT31;9308;48.550;9.108;2023-06-22T15:04:25;33.26;41.28
18361;SHT31;9308;48.550;9.108;2023-06-22T15:06:52;32.92;41.29
18361;SHT31;9308;48.550;9.108;2023-06-22T15:09:18;33.14;40.34
18361;SHT31;9308;48.550;9.108;2023-06-22T15:11:44;32.81;39.69
18361;SHT31;9308;48.550;9.108;2023-06-22T15:14:09;32.81;40.31
18361;SHT31;9308;48.550;9.108;2023-06-22T15:16:34;33.05;42.16
18361;SHT31;9308;48.550;9.108;2023-06-22T15:19:00;32.56;39.71
18361;SHT31;9308;48.550;9.108;2023-06-22T15:21:25;32.50;39.71
18361;SHT31;9308;48.550;9.108;2023-06-22T15:23:51;31.96;38.20
18361;SHT31;9308;48.550;9.108;2023-06-22T15:26:16;32.02;37.86
18361;SHT31;9308;48.550;9.108;2023-06-22T15:28:42;31.96;38.06
18361;SHT31;9308;48.550;9.108;2023-06-22T15:31:08;31.48;36.21
18361;SHT31;9308;48.550;9.108;2023-06-22T15:33:34;31.66;37.16
18361;SHT31;9308;48.550;9.108;2023-06-22T15:35:59;31.77;38.14
18361;SHT31;9308;48.550;9.108;2023-06-22T15:38:29;31.67;37.42
18361;SHT31;9308;48.550;9.108;2023-06-22T15:40:56;31.56;37.87
18361;SHT31;9308;48.550;9.108;2023-06-22T15:43:21;31.60;40.28
18361;SHT31;9308;48.550;9.108;2023-06-22T15:45:46;31.47;37.21